Share

Grand Ridge, FL

9:58 AM CDT on April 23, 2014 (GMT -0500)
Cypress (KFLMARIA3) Elev 138 ft | 30.67 °N, 85.07 °W | Change Station

Current weather conditions updated 4 seconds ago

Partly Cloudy
Partly Cloudy
75.5 °F
Feels Like 75 °F
N
1.4
Wind Variable Wind from NE
Gusts 7.0 mph
Sunrise 6:03 AM
Sunset 7:13 PM
Moon Waning Crescent

Today is forecast to be nearly the same temperature as yesterday.

Pressure 29.96 in
Visibility 10.0 miles
Clouds Few 1900 ft
Heat Index 75 °F
Dew Point 72 °F
Humidity 90%
Rainfall 0.00 in
Snow Depth Not available.
UV 7 out of 16
Pollen 8.20 out of 12
Air Quality Not available.
Flu Activity Sporadic
METAR KMAI 231453Z AUTO VRB04KT 10SM FEW019 23/17 A2996 RMK AO2 SLP145 T02330172 51009 PWINO

More Conditions Fewer Conditions

Pressure 29.96 in
Visibility 10.0 miles
Clouds Few 1900 ft
Heat Index 75 °F
Dew Point 72 °F
Humidity 90%
Rainfall 0.00 in
Snow Depth Not available.
UV 7 out of 16
Pollen 8.20 out of 12
Air Quality Not available.
Flu Activity Sporadic
METAR KMAI 231453Z AUTO VRB04KT 10SM FEW019 23/17 A2996 RMK AO2 SLP145 T02330172 51009 PWINO

More Conditions Fewer Conditions

10-Day Weather Forecast

Almanac

Astronomy

Apr. 23, 2014 Rise Set
Actual Time 6:03 AM CDT 7:13 PM CDT
Civil Twilight 5:38 AM CDT 7:38 PM CDT
Nautical Twilight 5:09 AM CDT 8:08 PM CDT
Astronomical Twilight 4:38 AM CDT 8:39 PM CDT
Moon 2:10 AM CDT 1:44 PM CDT
Length of Visible Light 13h 59m
Length of Day
13h 09m
Tomorrow will be 1m 41s longer.
Waning Crescent, 35% of the Moon is Illuminated
Today
Waning Crescent
Apr 29
New
May 6
First Quarter
May 14
Full
May 21
Last Quarter

Today's Extremes

State Highs State Lows

Community

  • spring flowers
    spring flowers
  • Earth Day Spectrum Ove' Blue
    Earth Day Spectrum Ove' Blue
  • BARN B&W
    BARN B&W
  • April Sunset
    April Sunset
  • Waiting..
    Waiting..

WunderPhotos

Upload Photos

1,704,299 photos uploaded!

Nearby

Snow Depth

Station Depth Elevation
No new snow has been reported.

Coastal Water Temperatures

Place Temperature
No Stations Reporting

Earthquake Activity

City Distance Mag. Time & Date
No recent earthquake activity has been reported nearby.
Minimum magnitude displayed is 2.5.

Nearby Weather Stations

Station Location Temp. Heat Index Dew Point Humidity Wind Precip. Elev Updated Type
Cypress, Marianna, FL 75.5 °F 75 °F 72 °F 90% NE  at  1.4 mph 0.00 in / hr 138 ft 9:58 AM CDT Rapid Fire
Blountstown, FL 71.7 °F 71 °F 66 °F 83% NNE  at  2.0 mph 0.00 in / hr 76 ft 9:58 AM CDT Rapid Fire

Show More Stations Show Fewer Stations

What do you think?

We're not finished. Please let us know what you like, what you don't like, and what you are still missing.